sensor_id;sensor_type;location;lat;lon;timestamp;P1;durP1;ratioP1;P2;durP2;ratioP2
26698;SDS011;14313;50.892;13.756;2022-11-14T08:53:56;21.48;;;12.13;;
26698;SDS011;14313;50.892;13.756;2022-11-14T08:56:40;22.23;;;12.10;;
26698;SDS011;14313;50.892;13.756;2022-11-14T08:59:24;16.15;;;11.32;;
26698;SDS011;14313;50.892;13.756;2022-11-14T09:02:09;20.88;;;10.73;;
26698;SDS011;14313;50.892;13.756;2022-11-14T09:04:54;16.92;;;9.35;;
26698;SDS011;14313;50.892;13.756;2022-11-14T09:07:38;22.33;;;8.73;;
26698;SDS011;14313;50.892;13.756;2022-11-14T09:10:22;19.25;;;9.77;;
26698;SDS011;14313;50.892;13.756;2022-11-14T09:13:06;22.63;;;8.70;;
26698;SDS011;14313;50.892;13.756;2022-11-14T09:15:50;25.65;;;8.80;;
26698;SDS011;14313;50.892;13.756;2022-11-14T09:18:33;20.95;;;8.25;;
26698;SDS011;14313;50.892;13.756;2022-11-14T09:21:17;31.55;;;8.90;;
26698;SDS011;14313;50.892;13.756;2022-11-14T09:24:02;50.47;;;9.18;;
26698;SDS011;14313;50.892;13.756;2022-11-14T09:26:46;83.72;;;12.20;;
26698;SDS011;14313;50.892;13.756;2022-11-14T09:29:32;102.88;;;13.40;;
26698;SDS011;14313;50.892;13.756;2022-11-14T09:32:15;107.72;;;14.10;;
26698;SDS011;14313;50.892;13.756;2022-11-14T09:34:59;93.88;;;14.82;;
26698;SDS011;14313;50.892;13.756;2022-11-14T09:37:43;84.72;;;13.73;;
26698;SDS011;14313;50.892;13.756;2022-11-14T09:40:27;106.57;;;14.30;;
26698;SDS011;14313;50.892;13.756;2022-11-14T09:46:21;83.72;;;11.98;;
26698;SDS011;14313;50.892;13.756;2022-11-14T09:49:54;61.72;;;11.75;;
26698;SDS011;14313;50.892;13.756;2022-11-14T09:55:32;75.40;;;13.70;;
26698;SDS011;14313;50.892;13.756;2022-11-14T09:58:20;75.80;;;13.15;;
26698;SDS011;14313;50.892;13.756;2022-11-14T10:01:05;59.35;;;11.70;;
26698;SDS011;14313;50.892;13.756;2022-11-14T10:04:17;50.53;;;11.50;;
26698;SDS011;14313;50.892;13.756;2022-11-14T10:07:25;64.97;;;11.80;;
26698;SDS011;14313;50.892;13.756;2022-11-14T17:18:26;33.25;;;21.33;;
26698;SDS011;14313;50.892;13.756;2022-11-14T17:21:10;36.08;;;24.20;;
26698;SDS011;14313;50.892;13.756;2022-11-14T17:23:56;36.65;;;24.50;;
26698;SDS011;14313;50.892;13.756;2022-11-14T17:26:40;53.83;;;35.42;;
26698;SDS011;14313;50.892;13.756;2022-11-14T17:29:25;55.38;;;36.28;;
26698;SDS011;14313;50.892;13.756;2022-11-14T17:32:09;51.53;;;31.30;;
26698;SDS011;14313;50.892;13.756;2022-11-14T17:34:53;53.90;;;33.10;;
26698;SDS011;14313;50.892;13.756;2022-11-14T17:37:37;47.42;;;30.33;;
26698;SDS011;14313;50.892;13.756;2022-11-14T17:40:21;48.80;;;29.55;;
26698;SDS011;14313;50.892;13.756;2022-11-14T17:43:05;67.65;;;40.83;;
26698;SDS011;14313;50.892;13.756;2022-11-14T17:45:52;57.15;;;34.40;;
26698;SDS011;14313;50.892;13.756;2022-11-14T17:48:37;44.35;;;27.02;;
26698;SDS011;14313;50.892;13.756;2022-11-14T17:51:21;56.58;;;33.95;;
26698;SDS011;14313;50.892;13.756;2022-11-14T17:54:06;52.80;;;31.08;;
26698;SDS011;14313;50.892;13.756;2022-11-14T17:56:49;52.42;;;31.70;;
26698;SDS011;14313;50.892;13.756;2022-11-14T17:59:33;57.45;;;34.42;;
26698;SDS011;14313;50.892;13.756;2022-11-14T18:02:19;59.58;;;35.83;;
26698;SDS011;14313;50.892;13.756;2022-11-14T18:05:03;54.50;;;32.92;;
26698;SDS011;14313;50.892;13.756;2022-11-14T18:07:47;56.95;;;35.05;;
26698;SDS011;14313;50.892;13.756;2022-11-14T18:10:31;53.28;;;30.13;;
26698;SDS011;14313;50.892;13.756;2022-11-14T18:13:16;45.85;;;28.13;;
26698;SDS011;14313;50.892;13.756;2022-11-14T18:16:04;53.58;;;32.08;;
26698;SDS011;14313;50.892;13.756;2022-11-14T18:18:59;53.42;;;29.65;;
26698;SDS011;14313;50.892;13.756;2022-11-14T18:21:44;50.50;;;28.05;;
26698;SDS011;14313;50.892;13.756;2022-11-14T18:24:28;51.40;;;30.02;;
26698;SDS011;14313;50.892;13.756;2022-11-14T18:27:12;67.18;;;36.30;;
26698;SDS011;14313;50.892;13.756;2022-11-14T18:29:56;52.33;;;30.23;;
26698;SDS011;14313;50.892;13.756;2022-11-14T18:32:40;59.78;;;34.55;;
26698;SDS011;14313;50.892;13.756;2022-11-14T18:35:24;60.70;;;34.60;;
26698;SDS011;14313;50.892;13.756;2022-11-14T18:38:08;63.83;;;37.28;;
26698;SDS011;14313;50.892;13.756;2022-11-14T18:40:52;58.50;;;33.40;;
26698;SDS011;14313;50.892;13.756;2022-11-14T18:43:36;58.33;;;33.15;;
26698;SDS011;14313;50.892;13.756;2022-11-14T18:46:20;58.60;;;33.60;;
26698;SDS011;14313;50.892;13.756;2022-11-14T18:49:06;56.25;;;33.13;;
26698;SDS011;14313;50.892;13.756;2022-11-14T18:51:50;64.88;;;37.95;;
26698;SDS011;14313;50.892;13.756;2022-11-14T18:54:34;59.15;;;34.95;;
26698;SDS011;14313;50.892;13.756;2022-11-14T18:57:18;88.85;;;51.22;;
26698;SDS011;14313;50.892;13.756;2022-11-14T19:00:02;64.40;;;38.00;;
26698;SDS011;14313;50.892;13.756;2022-11-14T19:02:50;56.90;;;33.47;;
26698;SDS011;14313;50.892;13.756;2022-11-14T19:05:34;59.22;;;33.17;;
26698;SDS011;14313;50.892;13.756;2022-11-14T19:08:19;59.95;;;33.85;;
26698;SDS011;14313;50.892;13.756;2022-11-14T19:11:04;52.97;;;30.08;;
26698;SDS011;14313;50.892;13.756;2022-11-14T19:14:12;57.50;;;33.08;;
26698;SDS011;14313;50.892;13.756;2022-11-14T19:16:56;54.08;;;28.33;;
26698;SDS011;14313;50.892;13.756;2022-11-14T19:19:39;58.20;;;32.28;;
26698;SDS011;14313;50.892;13.756;2022-11-14T19:22:23;47.83;;;28.38;;
26698;SDS011;14313;50.892;13.756;2022-11-14T19:25:07;55.28;;;29.90;;
26698;SDS011;14313;50.892;13.756;2022-11-14T19:27:51;48.25;;;27.52;;
26698;SDS011;14313;50.892;13.756;2022-11-14T19:30:35;50.75;;;28.45;;
26698;SDS011;14313;50.892;13.756;2022-11-14T19:33:19;52.25;;;28.67;;
26698;SDS011;14313;50.892;13.756;2022-11-14T19:36:07;51.05;;;28.77;;
26698;SDS011;14313;50.892;13.756;2022-11-14T19:38:54;52.53;;;28.92;;
26698;SDS011;14313;50.892;13.756;2022-11-14T19:41:39;43.42;;;24.90;;
26698;SDS011;14313;50.892;13.756;2022-11-14T19:44:23;42.60;;;25.15;;
26698;SDS011;14313;50.892;13.756;2022-11-14T19:47:07;56.25;;;30.35;;
26698;SDS011;14313;50.892;13.756;2022-11-14T19:49:51;50.83;;;29.27;;
26698;SDS011;14313;50.892;13.756;2022-11-14T19:52:35;52.33;;;27.63;;
26698;SDS011;14313;50.892;13.756;2022-11-14T19:55:19;55.40;;;31.10;;
26698;SDS011;14313;50.892;13.756;2022-11-14T19:58:03;51.15;;;29.17;;
26698;SDS011;14313;50.892;13.756;2022-11-14T20:00:47;54.85;;;30.73;;
26698;SDS011;14313;50.892;13.756;2022-11-14T20:03:31;59.55;;;32.67;;
